Time;durP1;ratioP1;P1;durP2;ratioP2;P2;SDS_P1;SDS_P2;PMS_P1;PMS_P2;Temp;Humidity;BMP_temperature;BMP_pressure;BME280_temperature;BME280_humidity;BME280_pressure;Samples;Min_cycle;Max_cycle;Signal;HPM_P1;HPM_P2
2023/03/29 00:00:58;;;;;;;3.42;1.83;;;;;;;;;;4996173;28;20030;-76
2023/03/29 00:03:25;;;;;;;3.88;1.90;;;;;;;;;;4996216;28;20032;-76
2023/03/29 00:05:56;;;;;;;3.65;2.05;;;;;;;;;;5007956;28;20054;-76
2023/03/29 00:08:24;;;;;;;3.40;1.80;;;;;;;;;;5009650;28;20121;-76
2023/03/29 00:10:50;;;;;;;4.78;1.75;;;;;;;;;;5008547;28;20113;-77
2023/03/29 00:13:16;;;;;;;5.63;1.77;;;;;;;;;;4995746;28;20293;-78
2023/03/29 00:15:42;;;;;;;4.45;2.00;;;;;;;;;;5013755;28;20029;-76
2023/03/29 00:18:08;;;;;;;3.38;1.52;;;;;;;;;;4996453;28;20136;-76
2023/03/29 00:20:35;;;;;;;3.17;1.77;;;;;;;;;;5011710;28;20029;-77
2023/03/29 00:23:00;;;;;;;3.53;1.80;;;;;;;;;;5011937;28;20030;-76
2023/03/29 00:25:26;;;;;;;4.75;2.03;;;;;;;;;;5008155;28;20104;-76
2023/03/29 00:27:51;;;;;;;2.83;1.52;;;;;;;;;;5008772;28;20482;-76
2023/03/29 00:30:17;;;;;;;3.22;1.60;;;;;;;;;;4994032;28;20029;-77
2023/03/29 00:32:42;;;;;;;3.75;1.63;;;;;;;;;;4994778;28;20029;-76
2023/03/29 00:35:09;;;;;;;3.38;1.60;;;;;;;;;;4993590;28;20351;-76
2023/03/29 00:37:35;;;;;;;3.45;1.70;;;;;;;;;;4991065;28;20135;-76
2023/03/29 00:40:00;;;;;;;3.88;1.70;;;;;;;;;;5010212;28;20021;-77
2023/03/29 00:42:26;;;;;;;4.93;1.52;;;;;;;;;;4992164;28;20030;-76
2023/03/29 00:44:55;;;;;;;3.30;1.60;;;;;;;;;;5015331;28;20033;-76
2023/03/29 00:47:42;;;;;;;4.05;1.90;;;;;;;;;;5011129;28;20037;-77
2023/03/29 00:50:21;;;;;;;3.38;1.70;;;;;;;;;;5011761;28;20064;-77
2023/03/29 00:52:55;;;;;;;2.72;1.40;;;;;;;;;;4996289;28;20437;-75
2023/03/29 00:55:23;;;;;;;4.18;1.88;;;;;;;;;;5010577;28;20108;-76
2023/03/29 00:57:52;;;;;;;4.72;1.85;;;;;;;;;;5010339;28;20117;-76
2023/03/29 01:00:21;;;;;;;3.72;1.88;;;;;;;;;;5007121;28;20054;-76
2023/03/29 01:02:53;;;;;;;3.38;1.63;;;;;;;;;;5008621;28;20497;-77
2023/03/29 01:05:29;;;;;;;3.42;1.77;;;;;;;;;;4993882;28;20038;-76
2023/03/29 01:08:03;;;;;;;2.88;1.52;;;;;;;;;;5003853;28;20034;-76
2023/03/29 01:10:39;;;;;;;5.85;1.58;;;;;;;;;;5010957;28;20018;-76
2023/03/29 01:13:18;;;;;;;4.30;1.73;;;;;;;;;;4992323;28;20053;-76
2023/03/29 01:15:45;;;;;;;3.92;1.50;;;;;;;;;;5006856;28;20355;-76
2023/03/29 01:18:10;;;;;;;5.10;1.60;;;;;;;;;;4993072;28;20028;-76
2023/03/29 01:21:03;;;;;;;3.53;1.67;;;;;;;;;;4989298;28;20030;-75
2023/03/29 01:23:58;;;;;;;4.20;1.88;;;;;;;;;;4992649;28;21375;-76
2023/03/29 01:26:41;;;;;;;3.10;1.58;;;;;;;;;;5007052;28;20041;-77
2023/03/29 01:29:27;;;;;;;3.65;1.70;;;;;;;;;;4987166;28;20044;-76
2023/03/29 01:32:02;;;;;;;4.72;1.83;;;;;;;;;;5007908;28;20037;-77
2023/03/29 01:35:09;;;;;;;4.65;2.10;;;;;;;;;;5004340;28;20038;-76
2023/03/29 01:38:00;;;;;;;3.50;1.60;;;;;;;;;;4969659;28;20126;-76
2023/03/29 01:40:27;;;;;;;5.75;1.77;;;;;;;;;;4995421;28;20487;-77
2023/03/29 01:43:05;;;;;;;5.35;1.55;;;;;;;;;;5010747;28;20036;-76
2023/03/29 01:45:42;;;;;;;3.58;1.40;;;;;;;;;;5011115;28;20093;-76
2023/03/29 01:48:31;;;;;;;4.68;1.73;;;;;;;;;;5005660;28;20034;-77
2023/03/29 01:51:25;;;;;;;2.50;1.50;;;;;;;;;;4991955;28;20055;-76
2023/03/29 01:53:56;;;;;;;;;;;;;;;;;;5006971;28;20029;-76
2023/03/29 01:56:26;;;;;;;5.47;1.60;;;;;;;;;;5011752;28;19921;-76
2023/03/29 01:58:57;;;;;;;3.75;1.70;;;;;;;;;;4988574;28;20501;-76
2023/03/29 02:01:26;;;;;;;3.08;1.67;;;;;;;;;;5010507;28;20029;-76
2023/03/29 02:03:58;;;;;;;3.10;1.65;;;;;;;;;;5006793;28;20038;-76
2023/03/29 02:06:26;;;;;;;2.88;1.63;;;;;;;;;;4990942;28;20049;-76
2023/03/29 02:08:53;;;;;;;3.95;1.95;;;;;;;;;;5006323;28;20096;-77
2023/03/29 02:11:22;;;;;;;9.32;2.30;;;;;;;;;;4990322;28;20073;-76
2023/03/29 02:13:47;;;;;;;3.75;1.77;;;;;;;;;;4992008;28;20025;-77
2023/03/29 02:16:13;;;;;;;3.63;1.70;;;;;;;;;;5010947;28;20034;-76
2023/03/29 02:18:42;;;;;;;5.55;1.80;;;;;;;;;;5009786;28;20036;-76
2023/03/29 02:21:10;;;;;;;3.83;1.80;;;;;;;;;;4990154;28;20026;-76
2023/03/29 02:23:44;;;;;;;4.97;2.13;;;;;;;;;;4994367;28;20086;-76
2023/03/29 02:26:13;;;;;;;3.88;1.80;;;;;;;;;;5008819;28;20025;-76
2023/03/29 02:28:39;;;;;;;4.43;1.90;;;;;;;;;;5007018;28;20425;-77
2023/03/29 02:31:18;;;;;;;3.33;1.60;;;;;;;;;;5007153;28;20033;-75
2023/03/29 02:33:57;;;;;;;4.60;1.88;;;;;;;;;;5004916;28;20109;-77
2023/03/29 02:36:29;;;;;;;8.65;1.98;;;;;;;;;;5007863;28;20057;-77
2023/03/29 02:38:57;;;;;;;4.70;2.07;;;;;;;;;;5011028;28;20018;-76
2023/03/29 02:41:24;;;;;;;5.03;2.10;;;;;;;;;;4997462;28;20025;-76
2023/03/29 02:43:50;;;;;;;4.13;1.83;;;;;;;;;;5003432;28;20025;-77
2023/03/29 02:46:17;;;;;;;3.58;1.85;;;;;;;;;;4996537;28;20544;-76
2023/03/29 02:48:45;;;;;;;4.07;2.00;;;;;;;;;;4994619;28;20485;-76
2023/03/29 02:51:16;;;;;;;4.35;1.88;;;;;;;;;;5007341;28;21174;-76
2023/03/29 02:53:48;;;;;;;3.80;1.85;;;;;;;;;;5015227;28;20029;-77
2023/03/29 02:56:14;;;;;;;4.57;2.00;;;;;;;;;;5014418;28;20560;-77
2023/03/29 02:58:39;;;;;;;3.42;1.75;;;;;;;;;;5013210;28;20113;-76
2023/03/29 03:01:06;;;;;;;3.90;1.73;;;;;;;;;;4997225;28;20025;-76
2023/03/29 03:03:31;;;;;;;7.57;2.08;;;;;;;;;;4995007;28;20033;-76
2023/03/29 03:05:57;;;;;;;5.97;1.98;;;;;;;;;;5014966;28;20644;-77
2023/03/29 03:08:22;;;;;;;3.22;1.60;;;;;;;;;;5012914;28;20406;-76
2023/03/29 03:10:48;;;;;;;4.47;2.22;;;;;;;;;;4995614;28;20030;-76
2023/03/29 03:13:13;;;;;;;4.15;1.75;;;;;;;;;;5010739;28;20026;-76
2023/03/29 03:15:41;;;;;;;3.88;1.75;;;;;;;;;;5019871;28;20044;-77
2023/03/29 03:18:08;;;;;;;6.03;1.90;;;;;;;;;;5012474;28;20073;-76
2023/03/29 03:20:34;;;;;;;3.42;1.63;;;;;;;;;;4995374;28;20030;-76
2023/03/29 03:23:02;;;;;;;3.50;1.60;;;;;;;;;;5011066;28;20113;-77
2023/03/29 03:25:28;;;;;;;4.55;2.10;;;;;;;;;;5009740;28;20072;-76
2023/03/29 03:27:53;;;;;;;3.75;1.88;;;;;;;;;;5012419;28;20049;-76
2023/03/29 03:30:19;;;;;;;4.40;1.73;;;;;;;;;;5013401;28;20041;-76
2023/03/29 03:32:45;;;;;;;3.85;1.90;;;;;;;;;;4994918;28;20116;-77
2023/03/29 03:35:11;;;;;;;3.92;2.05;;;;;;;;;;4993487;28;20026;-76
2023/03/29 03:37:37;;;;;;;5.28;2.10;;;;;;;;;;4994214;28;20521;-77
2023/03/29 03:40:07;;;;;;;3.60;1.80;;;;;;;;;;4988607;28;20055;-76
2023/03/29 03:42:32;;;;;;;3.38;1.52;;;;;;;;;;5010760;28;20409;-77
2023/03/29 03:44:58;;;;;;;5.82;1.95;;;;;;;;;;5005603;28;20022;-76
2023/03/29 03:47:23;;;;;;;3.30;1.67;;;;;;;;;;4993729;28;20141;-76
2023/03/29 03:49:50;;;;;;;4.75;1.83;;;;;;;;;;4993417;28;20551;-76
2023/03/29 03:52:16;;;;;;;3.35;1.70;;;;;;;;;;5011251;28;20371;-76
2023/03/29 03:54:41;;;;;;;3.97;1.70;;;;;;;;;;5008762;28;20030;-76
2023/03/29 03:57:07;;;;;;;3.83;1.90;;;;;;;;;;5005565;28;20387;-76
2023/03/29 03:59:32;;;;;;;5.80;1.80;;;;;;;;;;5010171;28;20064;-76
2023/03/29 04:01:58;;;;;;;3.92;2.17;;;;;;;;;;5009698;28;20026;-76
2023/03/29 04:04:24;;;;;;;3.38;1.75;;;;;;;;;;5008998;28;20561;-76
2023/03/29 04:06:49;;;;;;;4.40;1.92;;;;;;;;;;5009588;28;20026;-76
2023/03/29 04:09:15;;;;;;;4.65;2.10;;;;;;;;;;4992661;28;20060;-77
2023/03/29 04:11:40;;;;;;;3.83;1.60;;;;;;;;;;5006735;28;20058;-76
2023/03/29 04:14:05;;;;;;;3.97;1.90;;;;;;;;;;5007893;28;20107;-76
2023/03/29 04:16:31;;;;;;;4.68;1.90;;;;;;;;;;5007859;28;20034;-77
2023/03/29 04:18:56;;;;;;;4.55;1.80;;;;;;;;;;4995462;28;20025;-76
2023/03/29 04:21:21;;;;;;;4.75;1.90;;;;;;;;;;5007403;28;20041;-76
2023/03/29 04:23:47;;;;;;;3.75;1.90;;;;;;;;;;4989433;28;20087;-77
2023/03/29 04:26:14;;;;;;;7.40;2.28;;;;;;;;;;5003517;28;20481;-77
2023/03/29 04:28:40;;;;;;;7.97;3.08;;;;;;;;;;4993628;28;20089;-77
2023/03/29 04:31:11;;;;;;;5.47;1.80;;;;;;;;;;5009280;28;20045;-76
2023/03/29 04:33:36;;;;;;;4.03;1.90;;;;;;;;;;5004909;28;20398;-76
2023/03/29 04:36:02;;;;;;;3.47;2.05;;;;;;;;;;4993610;28;20037;-77
2023/03/29 04:38:27;;;;;;;6.88;2.28;;;;;;;;;;4994454;28;20482;-76
2023/03/29 04:40:54;;;;;;;3.30;1.90;;;;;;;;;;4992031;28;20057;-76
2023/03/29 04:43:21;;;;;;;4.43;1.90;;;;;;;;;;5007908;28;20119;-76
2023/03/29 04:45:47;;;;;;;5.72;2.20;;;;;;;;;;5012124;28;20030;-76
2023/03/29 04:48:12;;;;;;;3.55;1.88;;;;;;;;;;4990895;28;20113;-76
2023/03/29 04:50:37;;;;;;;4.38;1.80;;;;;;;;;;5008311;28;20041;-76
2023/03/29 04:53:03;;;;;;;4.07;2.05;;;;;;;;;;4991766;28;20048;-76
2023/03/29 04:55:28;;;;;;;6.43;2.30;;;;;;;;;;4991035;28;20083;-76
2023/03/29 04:57:54;;;;;;;5.38;2.15;;;;;;;;;;5020638;28;20091;-76
2023/03/29 05:00:25;;;;;;;4.80;2.08;;;;;;;;;;5007436;28;20026;-78
2023/03/29 05:02:51;;;;;;;4.97;2.15;;;;;;;;;;4987163;28;20498;-76
2023/03/29 05:05:16;;;;;;;4.88;2.00;;;;;;;;;;4996212;28;20048;-76
2023/03/29 05:07:41;;;;;;;3.30;1.70;;;;;;;;;;4992942;28;20034;-76
2023/03/29 05:10:08;;;;;;;3.88;2.13;;;;;;;;;;5012950;28;20041;-76
2023/03/29 05:12:33;;;;;;;4.28;2.00;;;;;;;;;;5008630;28;20060;-77
2023/03/29 05:14:58;;;;;;;4.28;1.95;;;;;;;;;;4990924;28;20455;-76
2023/03/29 05:17:26;;;;;;;7.10;2.08;;;;;;;;;;4995072;28;20026;-77
2023/03/29 05:19:53;;;;;;;5.10;2.10;;;;;;;;;;4996131;28;20033;-76
2023/03/29 05:22:19;;;;;;;5.43;1.95;;;;;;;;;;5007837;28;20041;-76
2023/03/29 05:24:44;;;;;;;4.85;1.98;;;;;;;;;;5008218;28;20474;-76
2023/03/29 05:27:10;;;;;;;3.75;1.83;;;;;;;;;;4998758;28;20033;-76
2023/03/29 05:29:35;;;;;;;5.70;2.08;;;;;;;;;;4991621;28;20029;-76
2023/03/29 05:32:01;;;;;;;5.85;2.13;;;;;;;;;;5010289;28;20113;-76
2023/03/29 05:34:26;;;;;;;4.53;2.00;;;;;;;;;;4993188;28;20497;-76
2023/03/29 05:36:51;;;;;;;4.78;2.00;;;;;;;;;;4996158;28;20492;-76
2023/03/29 05:39:17;;;;;;;3.40;1.85;;;;;;;;;;5010663;28;20052;-76
2023/03/29 05:41:42;;;;;;;4.97;2.20;;;;;;;;;;5009868;28;20022;-76
2023/03/29 05:44:08;;;;;;;3.78;1.90;;;;;;;;;;5010492;28;20101;-77
2023/03/29 05:46:33;;;;;;;6.80;2.40;;;;;;;;;;5009563;28;20116;-76
2023/03/29 05:48:59;;;;;;;5.82;2.40;;;;;;;;;;5010236;28;20037;-77
2023/03/29 05:51:25;;;;;;;5.13;2.38;;;;;;;;;;5007699;28;20044;-77
2023/03/29 05:53:50;;;;;;;4.95;2.22;;;;;;;;;;5004182;28;20426;-75
2023/03/29 05:56:17;;;;;;;6.00;2.40;;;;;;;;;;5004740;28;20088;-78
2023/03/29 05:58:42;;;;;;;4.97;2.30;;;;;;;;;;4992053;28;20436;-76
2023/03/29 06:01:13;;;;;;;3.88;2.05;;;;;;;;;;4991437;28;20026;-77
2023/03/29 06:03:38;;;;;;;5.10;2.35;;;;;;;;;;5010719;28;20355;-76
2023/03/29 06:06:03;;;;;;;6.13;2.28;;;;;;;;;;5009930;28;20096;-77
2023/03/29 06:08:30;;;;;;;5.63;2.50;;;;;;;;;;5012186;28;20040;-77
2023/03/29 06:10:59;;;;;;;5.47;2.30;;;;;;;;;;5006061;28;20027;-76
2023/03/29 06:13:25;;;;;;;5.00;2.38;;;;;;;;;;4994529;28;20034;-76
2023/03/29 06:15:50;;;;;;;5.22;2.40;;;;;;;;;;4990410;28;20033;-76
2023/03/29 06:18:15;;;;;;;6.22;2.25;;;;;;;;;;4979467;28;20018;-76
2023/03/29 06:20:41;;;;;;;6.10;2.30;;;;;;;;;;4994017;28;20121;-76
2023/03/29 06:23:07;;;;;;;5.00;2.55;;;;;;;;;;4993171;28;20094;-76
2023/03/29 06:25:34;;;;;;;3.47;1.98;;;;;;;;;;4995991;28;20478;-79
2023/03/29 06:28:00;;;;;;;5.60;2.30;;;;;;;;;;5009688;28;20113;-81
2023/03/29 06:30:25;;;;;;;4.78;2.28;;;;;;;;;;4996532;28;20116;-80
2023/03/29 06:32:50;;;;;;;4.35;2.13;;;;;;;;;;5014897;28;20033;-81
2023/03/29 06:35:16;;;;;;;4.82;2.17;;;;;;;;;;4995212;28;20031;-80
2023/03/29 06:37:48;;;;;;;6.57;2.50;;;;;;;;;;5007453;28;20029;-81
2023/03/29 06:40:16;;;;;;;4.47;2.43;;;;;;;;;;5007337;28;20030;-81
2023/03/29 06:42:42;;;;;;;4.70;2.30;;;;;;;;;;4996675;28;20029;-80
2023/03/29 06:45:08;;;;;;;6.75;2.50;;;;;;;;;;5011255;28;20022;-81
2023/03/29 06:47:33;;;;;;;6.00;2.67;;;;;;;;;;4995832;28;20091;-80
2023/03/29 06:49:58;;;;;;;6.10;2.65;;;;;;;;;;4996822;28;20053;-80
2023/03/29 06:52:24;;;;;;;5.07;2.42;;;;;;;;;;5014010;28;20029;-80
2023/03/29 06:54:49;;;;;;;4.55;2.28;;;;;;;;;;5008902;28;20037;-80
2023/03/29 06:57:15;;;;;;;6.93;2.72;;;;;;;;;;5007853;28;20490;-80
2023/03/29 06:59:40;;;;;;;4.65;2.65;;;;;;;;;;5011429;28;20080;-81
2023/03/29 07:02:06;;;;;;;4.50;2.30;;;;;;;;;;4998225;28;20026;-80
2023/03/29 07:04:31;;;;;;;5.57;2.78;;;;;;;;;;4997708;28;20437;-81
2023/03/29 07:07:04;;;;;;;5.30;2.80;;;;;;;;;;4987640;28;20466;-81
2023/03/29 07:09:30;;;;;;;;;;;;;;;;;;4995215;28;20048;-80
2023/03/29 07:11:57;;;;;;;4.72;2.17;;;;;;;;;;5010977;28;19913;-80
2023/03/29 07:14:27;;;;;;;4.22;2.30;;;;;;;;;;5012656;28;20141;-80
2023/03/29 07:16:57;;;;;;;5.47;2.70;;;;;;;;;;5007022;28;20457;-80
2023/03/29 07:19:24;;;;;;;6.85;2.55;;;;;;;;;;5015074;28;20029;-81
2023/03/29 07:21:52;;;;;;;8.27;2.78;;;;;;;;;;5022018;28;20037;-80
2023/03/29 07:24:19;;;;;;;5.45;2.63;;;;;;;;;;5003378;28;20025;-81
2023/03/29 07:26:44;;;;;;;6.72;2.97;;;;;;;;;;4998304;28;20054;-80
2023/03/29 07:29:10;;;;;;;6.68;2.58;;;;;;;;;;5010119;28;20034;-81
2023/03/29 07:31:39;;;;;;;5.88;3.03;;;;;;;;;;4996840;28;20448;-80
2023/03/29 07:34:10;;;;;;;6.30;3.20;;;;;;;;;;5007830;28;20026;-80
2023/03/29 07:36:38;;;;;;;7.53;2.80;;;;;;;;;;5012446;28;20029;-80
2023/03/29 07:39:05;;;;;;;7.22;3.03;;;;;;;;;;5013982;28;20055;-80
2023/03/29 07:41:31;;;;;;;4.63;2.80;;;;;;;;;;5013134;28;20032;-80
2023/03/29 07:43:57;;;;;;;6.60;3.17;;;;;;;;;;4990475;28;20393;-81
2023/03/29 07:46:23;;;;;;;7.32;3.50;;;;;;;;;;4989612;28;20046;-81
2023/03/29 07:48:49;;;;;;;8.23;3.10;;;;;;;;;;5010002;28;20053;-80
2023/03/29 07:51:15;;;;;;;7.75;3.40;;;;;;;;;;5012791;28;20102;-81
2023/03/29 07:53:40;;;;;;;7.35;3.58;;;;;;;;;;4995826;28;20088;-80
2023/03/29 07:56:06;;;;;;;9.82;3.40;;;;;;;;;;4994009;28;20425;-80
2023/03/29 07:58:32;;;;;;;7.35;3.47;;;;;;;;;;5010774;28;20049;-81
2023/03/29 08:00:58;;;;;;;8.68;3.80;;;;;;;;;;5007824;28;20022;-79
2023/03/29 08:03:24;;;;;;;8.57;3.50;;;;;;;;;;5012708;28;20097;-80
2023/03/29 08:05:50;;;;;;;6.63;3.75;;;;;;;;;;5006194;28;20037;-79
2023/03/29 08:08:16;;;;;;;5.60;3.03;;;;;;;;;;5009058;28;20478;-80
2023/03/29 08:10:41;;;;;;;7.93;3.33;;;;;;;;;;4997153;28;20022;-81
2023/03/29 08:13:08;;;;;;;6.53;3.40;;;;;;;;;;5016186;28;20121;-79
2023/03/29 08:15:36;;;;;;;7.28;2.88;;;;;;;;;;4994828;28;20032;-80
2023/03/29 08:18:02;;;;;;;6.40;3.40;;;;;;;;;;5011970;28;20042;-81
2023/03/29 08:20:27;;;;;;;7.25;3.50;;;;;;;;;;4996217;28;20038;-80
2023/03/29 08:22:53;;;;;;;9.23;3.38;;;;;;;;;;4995399;28;20038;-81
2023/03/29 08:25:19;;;;;;;9.30;3.83;;;;;;;;;;5013549;28;20073;-80
2023/03/29 08:27:44;;;;;;;7.00;3.30;;;;;;;;;;4995836;28;20042;-81
2023/03/29 08:30:10;;;;;;;6.18;3.17;;;;;;;;;;4992367;28;20037;-81
2023/03/29 08:32:36;;;;;;;9.10;3.92;;;;;;;;;;4978441;28;20039;-81
2023/03/29 08:35:06;;;;;;;9.73;3.90;;;;;;;;;;5008919;28;20030;-80
2023/03/29 08:37:31;;;;;;;7.82;3.45;;;;;;;;;;5013902;28;20109;-81
2023/03/29 08:39:57;;;;;;;6.45;3.85;;;;;;;;;;4995195;28;20121;-80
2023/03/29 08:42:45;;;;;;;6.55;3.85;;;;;;;;;;5008438;28;20041;-80
2023/03/29 08:45:58;;;;;;;7.85;3.35;;;;;;;;;;4993292;28;20034;-80
2023/03/29 08:48:33;;;;;;;9.75;3.80;;;;;;;;;;4912540;29;20047;-80
2023/03/29 08:51:03;;;;;;;10.43;4.28;;;;;;;;;;4980737;28;20536;-81
2023/03/29 08:53:28;;;;;;;7.82;4.63;;;;;;;;;;5009798;28;20061;-81
2023/03/29 08:55:57;;;;;;;6.43;4.45;;;;;;;;;;4988567;28;20068;-81
2023/03/29 08:58:31;;;;;;;9.82;4.43;;;;;;;;;;4994448;28;20375;-81
2023/03/29 09:00:58;;;;;;;11.45;4.50;;;;;;;;;;4995669;28;20108;-81
2023/03/29 09:03:30;;;;;;;10.95;4.90;;;;;;;;;;5008586;28;20438;-80
2023/03/29 09:06:07;;;;;;;7.15;4.47;;;;;;;;;;4995312;28;20112;-80
2023/03/29 09:08:53;;;;;;;9.73;4.35;;;;;;;;;;5011405;28;20038;-79
2023/03/29 09:11:30;;;;;;;8.80;4.15;;;;;;;;;;5012395;28;20451;-81
2023/03/29 09:14:14;;;;;;;7.22;4.22;;;;;;;;;;5011241;28;20112;-80
2023/03/29 09:16:51;;;;;;;7.38;3.88;;;;;;;;;;4986759;28;20068;-80
2023/03/29 09:19:32;;;;;;;8.05;4.22;;;;;;;;;;5010322;28;20080;-81
2023/03/29 09:22:00;;;;;;;9.23;4.40;;;;;;;;;;5004271;28;20029;-81
2023/03/29 09:24:37;;;;;;;7.53;3.88;;;;;;;;;;4993457;28;20058;-81
2023/03/29 09:27:22;;;;;;;11.27;4.47;;;;;;;;;;4992455;28;20112;-81
2023/03/29 09:29:55;;;;;;;7.78;4.63;;;;;;;;;;4994396;28;20545;-81
2023/03/29 09:32:26;;;;;;;9.63;5.18;;;;;;;;;;5010846;28;20363;-81
2023/03/29 09:35:17;;;;;;;7.80;4.50;;;;;;;;;;5009952;28;20429;-81
2023/03/29 09:37:45;;;;;;;10.18;4.85;;;;;;;;;;4971378;28;20543;-81
2023/03/29 09:40:15;;;;;;;10.00;4.90;;;;;;;;;;4994040;28;20494;-81
2023/03/29 09:42:42;;;;;;;9.52;4.95;;;;;;;;;;4993889;28;20022;-81
2023/03/29 09:45:08;;;;;;;9.90;5.05;;;;;;;;;;4990416;28;20290;-80
2023/03/29 09:47:47;;;;;;;8.10;4.90;;;;;;;;;;5012983;28;20037;-80
2023/03/29 09:50:18;;;;;;;8.27;4.43;;;;;;;;;;5015521;28;20037;-81
2023/03/29 09:52:45;;;;;;;9.77;5.28;;;;;;;;;;4991755;28;20036;-79
2023/03/29 09:55:15;;;;;;;8.30;4.70;;;;;;;;;;5016132;28;20026;-81
2023/03/29 09:57:42;;;;;;;9.07;4.63;;;;;;;;;;5004827;28;20026;-81
2023/03/29 10:00:09;;;;;;;7.80;4.93;;;;;;;;;;4990131;28;20037;-81
2023/03/29 10:02:35;;;;;;;8.85;5.00;;;;;;;;;;5011293;28;20037;-81
2023/03/29 10:05:04;;;;;;;10.73;5.40;;;;;;;;;;5013496;28;20022;-80
2023/03/29 10:07:43;;;;;;;10.68;5.28;;;;;;;;;;5011453;28;20478;-81
2023/03/29 10:10:17;;;;;;;7.70;4.72;;;;;;;;;;5014774;28;20156;-81
2023/03/29 10:12:49;;;;;;;9.90;5.80;;;;;;;;;;5026496;28;20021;-81
2023/03/29 10:15:16;;;;;;;11.82;5.43;;;;;;;;;;5016211;28;20026;-81
2023/03/29 10:17:44;;;;;;;12.52;5.70;;;;;;;;;;5013655;28;20026;-81
2023/03/29 10:20:17;;;;;;;11.25;6.15;;;;;;;;;;5015289;28;20026;-81
2023/03/29 10:22:55;;;;;;;11.57;5.65;;;;;;;;;;4995088;28;20058;-81
2023/03/29 10:25:26;;;;;;;10.32;5.80;;;;;;;;;;5013621;28;20064;-81
2023/03/29 10:27:55;;;;;;;11.50;5.43;;;;;;;;;;5012653;28;20040;-81
2023/03/29 10:30:24;;;;;;;9.70;6.00;;;;;;;;;;5008586;28;20573;-81
2023/03/29 10:32:58;;;;;;;10.63;5.72;;;;;;;;;;5011744;28;20080;-81
2023/03/29 10:35:29;;;;;;;10.73;5.50;;;;;;;;;;4990366;28;20096;-75
2023/03/29 10:37:57;;;;;;;11.43;6.20;;;;;;;;;;5019619;28;20455;-76
2023/03/29 10:40:34;;;;;;;10.93;6.13;;;;;;;;;;5015142;28;20108;-79
2023/03/29 10:43:31;;;;;;;12.32;6.28;;;;;;;;;;5014186;28;20034;-76
2023/03/29 10:46:06;;;;;;;10.77;5.80;;;;;;;;;;4991784;28;20045;-77
2023/03/29 10:48:34;;;;;;;11.15;6.32;;;;;;;;;;5014718;28;20025;-76
2023/03/29 10:51:01;;;;;;;13.52;7.00;;;;;;;;;;5016370;28;20077;-75
2023/03/29 10:53:36;;;;;;;12.32;6.95;;;;;;;;;;5021555;28;20069;-75
2023/03/29 10:56:10;;;;;;;10.68;6.15;;;;;;;;;;5009870;28;20038;-75
2023/03/29 10:58:45;;;;;;;11.60;7.00;;;;;;;;;;5006347;28;20026;-76
2023/03/29 11:01:21;;;;;;;10.88;6.60;;;;;;;;;;4998961;28;20065;-76
2023/03/29 11:04:06;;;;;;;12.15;6.55;;;;;;;;;;5017327;28;20041;-76
2023/03/29 11:06:42;;;;;;;10.52;6.78;;;;;;;;;;5017751;28;20030;-76
2023/03/29 11:09:24;;;;;;;10.07;6.85;;;;;;;;;;5000005;28;20022;-76
2023/03/29 11:11:52;;;;;;;10.23;6.40;;;;;;;;;;4999832;28;20044;-76
2023/03/29 11:14:24;;;;;;;10.55;6.20;;;;;;;;;;5015230;28;20045;-75
2023/03/29 11:17:16;;;;;;;10.90;6.82;;;;;;;;;;5014857;28;20029;-76
2023/03/29 11:19:51;;;;;;;10.95;6.70;;;;;;;;;;5003478;28;20024;-76
2023/03/29 11:22:48;;;;;;;11.63;6.55;;;;;;;;;;4996147;28;20065;-76
2023/03/29 11:25:39;;;;;;;11.55;6.13;;;;;;;;;;5000651;28;20018;-76
2023/03/29 11:28:22;;;;;;;13.18;6.30;;;;;;;;;;4995954;28;20044;-76
2023/03/29 11:31:10;;;;;;;10.45;6.43;;;;;;;;;;5011703;28;20113;-76
2023/03/29 11:33:50;;;;;;;10.10;6.05;;;;;;;;;;4999067;28;20034;-76
2023/03/29 11:36:24;;;;;;;11.68;6.63;;;;;;;;;;5013060;28;20030;-77
2023/03/29 11:38:56;;;;;;;11.88;6.72;;;;;;;;;;4999832;28;20108;-76
2023/03/29 11:41:28;;;;;;;11.90;6.82;;;;;;;;;;4997405;28;20034;-75
2023/03/29 11:44:12;;;;;;;10.98;7.10;;;;;;;;;;5017729;28;20014;-76
2023/03/29 11:46:40;;;;;;;10.43;6.28;;;;;;;;;;4994417;28;20038;-77
2023/03/29 11:49:14;;;;;;;13.55;6.85;;;;;;;;;;5010212;28;20478;-76
2023/03/29 11:51:58;;;;;;;10.85;6.10;;;;;;;;;;5014262;28;20490;-76
2023/03/29 11:54:38;;;;;;;10.73;6.63;;;;;;;;;;4999520;28;20025;-77
2023/03/29 11:57:26;;;;;;;10.65;6.05;;;;;;;;;;4998270;28;20030;-76
2023/03/29 12:00:04;;;;;;;9.90;6.15;;;;;;;;;;4997935;28;20034;-77
2023/03/29 12:02:38;;;;;;;11.15;6.60;;;;;;;;;;5009578;28;20172;-76
2023/03/29 12:05:20;;;;;;;12.60;6.75;;;;;;;;;;4998800;28;20485;-77
2023/03/29 12:07:52;;;;;;;11.80;6.47;;;;;;;;;;4982956;28;20029;-76
2023/03/29 12:10:20;;;;;;;11.65;6.78;;;;;;;;;;5015001;28;20030;-75
2023/03/29 12:13:02;;;;;;;9.73;5.90;;;;;;;;;;5012155;28;20026;-76
2023/03/29 12:15:36;;;;;;;10.43;6.28;;;;;;;;;;4985882;28;20129;-76
2023/03/29 12:18:30;;;;;;;12.18;5.93;;;;;;;;;;5012981;28;20029;-76
2023/03/29 12:21:00;;;;;;;11.70;6.45;;;;;;;;;;4991450;28;20183;-76
2023/03/29 12:23:29;;;;;;;11.35;6.68;;;;;;;;;;4995460;28;20505;-76
2023/03/29 12:26:11;;;;;;;12.00;6.38;;;;;;;;;;5014381;28;20033;-76
2023/03/29 12:28:57;;;;;;;10.32;6.90;;;;;;;;;;5012642;28;20108;-76
2023/03/29 12:32:01;;;;;;;10.40;6.32;;;;;;;;;;5016743;28;20033;-79
2023/03/29 12:34:44;;;;;;;9.27;6.13;;;;;;;;;;4985504;28;20152;-76
2023/03/29 12:37:28;;;;;;;10.95;5.80;;;;;;;;;;5007784;28;20026;-76
2023/03/29 12:40:11;;;;;;;10.82;6.30;;;;;;;;;;4998425;28;20183;-75
2023/03/29 12:42:55;;;;;;;13.48;6.72;;;;;;;;;;5015162;28;20030;-76
2023/03/29 12:45:39;;;;;;;11.48;6.00;;;;;;;;;;5013457;28;20410;-76
2023/03/29 12:48:06;;;;;;;9.52;6.30;;;;;;;;;;5010295;28;20026;-76
2023/03/29 12:50:34;;;;;;;11.52;6.85;;;;;;;;;;4994015;28;20051;-76
2023/03/29 12:53:25;;;;;;;9.48;6.15;;;;;;;;;;5014796;28;20056;-77
2023/03/29 12:55:59;;;;;;;10.60;6.55;;;;;;;;;;4989146;28;20034;-75
2023/03/29 12:58:27;;;;;;;10.38;7.07;;;;;;;;;;5010556;28;20032;-76
2023/03/29 13:01:26;;;;;;;12.32;7.00;;;;;;;;;;5013759;28;20042;-77
2023/03/29 13:04:00;;;;;;;9.50;6.20;;;;;;;;;;5012867;28;20034;-75
2023/03/29 13:06:55;;;;;;;10.70;6.53;;;;;;;;;;5011514;28;20038;-75
2023/03/29 13:09:23;;;;;;;11.23;6.70;;;;;;;;;;4990365;28;20549;-77
2023/03/29 13:11:54;;;;;;;9.93;6.50;;;;;;;;;;4996594;28;20088;-75
2023/03/29 13:14:24;;;;;;;9.85;5.82;;;;;;;;;;5013504;28;20478;-77
2023/03/29 13:16:49;;;;;;;8.77;5.95;;;;;;;;;;4995103;28;20060;-76
2023/03/29 13:19:29;;;;;;;10.63;6.22;;;;;;;;;;5009258;28;20053;-77
2023/03/29 13:22:10;;;;;;;8.63;5.90;;;;;;;;;;4999740;28;20022;-76
2023/03/29 13:25:04;;;;;;;10.75;6.20;;;;;;;;;;4991997;28;20049;-76
2023/03/29 13:28:00;;;;;;;8.15;5.90;;;;;;;;;;4993007;28;20042;-77
2023/03/29 13:30:51;;;;;;;10.32;6.55;;;;;;;;;;5007095;28;20034;-77
2023/03/29 13:33:44;;;;;;;9.18;6.13;;;;;;;;;;5016853;28;20127;-76
2023/03/29 13:36:47;;;;;;;10.25;7.15;;;;;;;;;;4991409;28;20095;-78
2023/03/29 13:39:21;;;;;;;8.50;5.20;;;;;;;;;;5012574;28;20076;-77
2023/03/29 13:41:51;;;;;;;9.75;6.10;;;;;;;;;;5013953;28;20344;-77
2023/03/29 13:44:43;;;;;;;7.70;5.13;;;;;;;;;;4998124;28;20555;-77
2023/03/29 13:47:18;;;;;;;8.52;5.50;;;;;;;;;;5001154;28;20027;-76
2023/03/29 13:49:51;;;;;;;10.00;6.20;;;;;;;;;;5001925;28;20375;-76
2023/03/29 13:52:29;;;;;;;9.45;5.75;;;;;;;;;;5003079;28;20537;-78
2023/03/29 13:55:19;;;;;;;10.50;5.25;;;;;;;;;;5018349;28;20030;-76
2023/03/29 13:57:58;;;;;;;9.60;5.82;;;;;;;;;;5012351;28;20025;-76
2023/03/29 14:00:35;;;;;;;9.35;5.65;;;;;;;;;;5006207;28;20061;-76
2023/03/29 14:03:05;;;;;;;10.40;5.88;;;;;;;;;;4990495;28;20040;-76
2023/03/29 14:05:40;;;;;;;8.40;5.45;;;;;;;;;;5012698;28;20029;-76
2023/03/29 14:08:29;;;;;;;8.63;5.35;;;;;;;;;;4994115;28;20475;-78
2023/03/29 14:10:54;;;;;;;6.90;5.30;;;;;;;;;;4988494;28;20056;-77
2023/03/29 14:13:22;;;;;;;10.13;6.25;;;;;;;;;;4997088;28;20030;-77
2023/03/29 14:16:05;;;;;;;10.98;5.88;;;;;;;;;;4999125;28;20034;-77
2023/03/29 14:18:39;;;;;;;9.38;5.88;;;;;;;;;;5010195;28;20030;-77
2023/03/29 14:21:05;;;;;;;8.27;5.50;;;;;;;;;;5008926;28;20034;-77
2023/03/29 14:23:32;;;;;;;6.78;5.03;;;;;;;;;;4999373;28;20489;-77
2023/03/29 14:26:17;;;;;;;6.68;5.00;;;;;;;;;;5000032;28;20034;-78
2023/03/29 14:28:50;;;;;;;9.75;4.97;;;;;;;;;;4991998;28;20053;-76
2023/03/29 14:31:21;;;;;;;7.57;5.15;;;;;;;;;;5004138;28;20037;-77
2023/03/29 14:33:52;;;;;;;8.00;5.20;;;;;;;;;;5014771;28;20485;-75
2023/03/29 14:36:17;;;;;;;9.38;4.95;;;;;;;;;;4995406;28;20036;-77
2023/03/29 14:38:52;;;;;;;6.53;4.80;;;;;;;;;;4999327;28;20405;-76
2023/03/29 14:41:17;;;;;;;9.15;4.65;;;;;;;;;;5009187;28;20393;-76
2023/03/29 14:43:45;;;;;;;8.25;4.18;;;;;;;;;;5016189;28;20029;-77
2023/03/29 14:46:12;;;;;;;7.45;4.20;;;;;;;;;;5018909;28;20050;-76
2023/03/29 14:48:37;;;;;;;7.38;4.40;;;;;;;;;;5015103;28;20050;-76
2023/03/29 14:51:03;;;;;;;7.22;4.60;;;;;;;;;;4995535;28;20053;-77
2023/03/29 14:53:31;;;;;;;8.30;4.63;;;;;;;;;;5000596;28;20033;-77
2023/03/29 14:55:57;;;;;;;7.60;5.03;;;;;;;;;;5013794;28;20026;-77
2023/03/29 14:58:45;;;;;;;8.07;5.15;;;;;;;;;;4998375;28;20025;-76
2023/03/29 15:01:19;;;;;;;6.30;4.25;;;;;;;;;;5004153;28;20056;-77
2023/03/29 15:03:55;;;;;;;6.95;4.38;;;;;;;;;;5000485;28;20512;-79
2023/03/29 15:06:22;;;;;;;8.20;4.10;;;;;;;;;;5018364;28;20040;-77